sensor_id;sensor_type;location;lat;lon;timestamp;temperature;humidity
12688;DHT22;6408;59.388;17.798;2023-07-24T00:02:08;14.50;99.90
12688;DHT22;6408;59.388;17.798;2023-07-24T00:04:36;14.40;99.90
12688;DHT22;6408;59.388;17.798;2023-07-24T00:07:04;14.40;99.90
12688;DHT22;6408;59.388;17.798;2023-07-24T00:09:31;14.40;99.90
12688;DHT22;6408;59.388;17.798;2023-07-24T00:11:58;14.40;99.90
12688;DHT22;6408;59.388;17.798;2023-07-24T00:14:27;14.30;99.90
12688;DHT22;6408;59.388;17.798;2023-07-24T00:16:55;14.30;99.90
12688;DHT22;6408;59.388;17.798;2023-07-24T00:19:22;14.20;99.90
12688;DHT22;6408;59.388;17.798;2023-07-24T00:21:50;14.30;99.90
12688;DHT22;6408;59.388;17.798;2023-07-24T00:24:17;14.20;99.90
12688;DHT22;6408;59.388;17.798;2023-07-24T00:26:45;14.20;99.90
12688;DHT22;6408;59.388;17.798;2023-07-24T00:29:12;14.10;99.90
12688;DHT22;6408;59.388;17.798;2023-07-24T00:31:41;14.00;99.90
12688;DHT22;6408;59.388;17.798;2023-07-24T00:34:08;14.00;99.90
12688;DHT22;6408;59.388;17.798;2023-07-24T00:36:36;14.00;99.90
12688;DHT22;6408;59.388;17.798;2023-07-24T00:39:04;14.00;99.90
12688;DHT22;6408;59.388;17.798;2023-07-24T00:41:31;13.90;99.90
12688;DHT22;6408;59.388;17.798;2023-07-24T00:43:58;13.90;99.90
12688;DHT22;6408;59.388;17.798;2023-07-24T00:46:26;14.00;99.90
12688;DHT22;6408;59.388;17.798;2023-07-24T00:49:00;13.90;99.90
12688;DHT22;6408;59.388;17.798;2023-07-24T00:51:28;13.90;99.90
12688;DHT22;6408;59.388;17.798;2023-07-24T00:53:56;13.90;99.90
12688;DHT22;6408;59.388;17.798;2023-07-24T00:56:24;13.80;99.90
12688;DHT22;6408;59.388;17.798;2023-07-24T00:58:51;13.80;99.90
12688;DHT22;6408;59.388;17.798;2023-07-24T01:01:21;13.80;99.90
12688;DHT22;6408;59.388;17.798;2023-07-24T01:03:49;13.70;99.90
12688;DHT22;6408;59.388;17.798;2023-07-24T01:06:18;13.70;99.90
12688;DHT22;6408;59.388;17.798;2023-07-24T01:08:45;13.70;99.90
12688;DHT22;6408;59.388;17.798;2023-07-24T01:11:16;13.60;99.90
12688;DHT22;6408;59.388;17.798;2023-07-24T01:13:49;13.60;99.90
12688;DHT22;6408;59.388;17.798;2023-07-24T01:16:19;13.60;99.90
12688;DHT22;6408;59.388;17.798;2023-07-24T01:18:49;13.70;99.90
12688;DHT22;6408;59.388;17.798;2023-07-24T01:21:25;13.60;99.90
12688;DHT22;6408;59.388;17.798;2023-07-24T01:24:03;13.60;99.90
12688;DHT22;6408;59.388;17.798;2023-07-24T01:26:38;13.60;99.90
12688;DHT22;6408;59.388;17.798;2023-07-24T01:29:05;13.60;99.90
12688;DHT22;6408;59.388;17.798;2023-07-24T01:31:33;13.50;99.90
12688;DHT22;6408;59.388;17.798;2023-07-24T01:34:00;13.50;99.90
12688;DHT22;6408;59.388;17.798;2023-07-24T01:36:27;13.50;99.90
12688;DHT22;6408;59.388;17.798;2023-07-24T01:38:55;13.40;99.90
12688;DHT22;6408;59.388;17.798;2023-07-24T01:41:23;13.40;99.90
12688;DHT22;6408;59.388;17.798;2023-07-24T01:43:53;13.30;99.90
12688;DHT22;6408;59.388;17.798;2023-07-24T01:46:20;13.30;99.90
12688;DHT22;6408;59.388;17.798;2023-07-24T01:48:48;13.20;99.90
12688;DHT22;6408;59.388;17.798;2023-07-24T01:51:15;13.20;99.90
12688;DHT22;6408;59.388;17.798;2023-07-24T01:53:43;13.20;99.90
12688;DHT22;6408;59.388;17.798;2023-07-24T01:56:10;13.20;99.90
12688;DHT22;6408;59.388;17.798;2023-07-24T01:58:37;13.10;99.90
12688;DHT22;6408;59.388;17.798;2023-07-24T02:01:07;13.10;99.90
12688;DHT22;6408;59.388;17.798;2023-07-24T02:03:34;13.10;99.90
12688;DHT22;6408;59.388;17.798;2023-07-24T02:06:01;13.00;99.90
12688;DHT22;6408;59.388;17.798;2023-07-24T02:08:29;13.00;99.90
12688;DHT22;6408;59.388;17.798;2023-07-24T02:10:56;13.10;99.90
12688;DHT22;6408;59.388;17.798;2023-07-24T02:13:24;13.00;99.90
12688;DHT22;6408;59.388;17.798;2023-07-24T02:15:51;13.00;99.90
12688;DHT22;6408;59.388;17.798;2023-07-24T02:18:21;13.10;99.90
12688;DHT22;6408;59.388;17.798;2023-07-24T02:20:49;13.10;99.90
12688;DHT22;6408;59.388;17.798;2023-07-24T02:23:17;13.10;99.90
12688;DHT22;6408;59.388;17.798;2023-07-24T02:25:44;13.10;99.90
12688;DHT22;6408;59.388;17.798;2023-07-24T02:28:11;13.10;99.90
12688;DHT22;6408;59.388;17.798;2023-07-24T02:30:39;13.00;99.90
12688;DHT22;6408;59.388;17.798;2023-07-24T02:33:06;13.00;99.90
12688;DHT22;6408;59.388;17.798;2023-07-24T02:35:40;13.00;99.90
12688;DHT22;6408;59.388;17.798;2023-07-24T02:38:07;13.00;99.90
12688;DHT22;6408;59.388;17.798;2023-07-24T02:40:36;13.00;99.90
12688;DHT22;6408;59.388;17.798;2023-07-24T02:43:03;12.90;99.90
12688;DHT22;6408;59.388;17.798;2023-07-24T02:45:33;12.90;99.90
12688;DHT22;6408;59.388;17.798;2023-07-24T02:48:01;13.00;99.90
12688;DHT22;6408;59.388;17.798;2023-07-24T02:50:28;13.10;99.90
12688;DHT22;6408;59.388;17.798;2023-07-24T02:52:57;13.10;99.90
12688;DHT22;6408;59.388;17.798;2023-07-24T02:55:25;13.20;99.90
12688;DHT22;6408;59.388;17.798;2023-07-24T02:57:52;13.20;99.90
12688;DHT22;6408;59.388;17.798;2023-07-24T03:00:20;13.20;99.90
12688;DHT22;6408;59.388;17.798;2023-07-24T03:02:48;13.20;99.90
12688;DHT22;6408;59.388;17.798;2023-07-24T03:05:15;13.20;99.90
12688;DHT22;6408;59.388;17.798;2023-07-24T03:07:42;13.30;99.90
12688;DHT22;6408;59.388;17.798;2023-07-24T03:10:12;13.30;99.90
12688;DHT22;6408;59.388;17.798;2023-07-24T03:12:39;13.30;99.90
12688;DHT22;6408;59.388;17.798;2023-07-24T03:15:07;13.40;99.90
12688;DHT22;6408;59.388;17.798;2023-07-24T03:17:35;13.40;99.90
12688;DHT22;6408;59.388;17.798;2023-07-24T03:20:08;13.50;99.90
12688;DHT22;6408;59.388;17.798;2023-07-24T03:22:36;13.50;99.90
12688;DHT22;6408;59.388;17.798;2023-07-24T03:25:04;13.60;99.90
12688;DHT22;6408;59.388;17.798;2023-07-24T03:27:33;13.80;99.90
12688;DHT22;6408;59.388;17.798;2023-07-24T03:30:01;13.80;99.90
12688;DHT22;6408;59.388;17.798;2023-07-24T03:32:29;13.90;99.90
12688;DHT22;6408;59.388;17.798;2023-07-24T03:34:56;14.00;99.90
12688;DHT22;6408;59.388;17.798;2023-07-24T03:37:23;14.10;99.90
12688;DHT22;6408;59.388;17.798;2023-07-24T03:39:51;14.20;99.90
12688;DHT22;6408;59.388;17.798;2023-07-24T03:42:25;14.20;99.90
12688;DHT22;6408;59.388;17.798;2023-07-24T03:44:55;14.30;99.90
12688;DHT22;6408;59.388;17.798;2023-07-24T03:47:23;14.40;99.90
12688;DHT22;6408;59.388;17.798;2023-07-24T03:49:51;14.40;99.90
12688;DHT22;6408;59.388;17.798;2023-07-24T03:52:19;14.50;99.90
12688;DHT22;6408;59.388;17.798;2023-07-24T03:54:46;14.60;99.90
12688;DHT22;6408;59.388;17.798;2023-07-24T03:57:14;14.60;99.90
12688;DHT22;6408;59.388;17.798;2023-07-24T03:59:41;14.70;99.90
12688;DHT22;6408;59.388;17.798;2023-07-24T04:02:10;14.70;99.90
12688;DHT22;6408;59.388;17.798;2023-07-24T04:04:37;14.80;99.90
12688;DHT22;6408;59.388;17.798;2023-07-24T04:07:05;14.90;99.90
12688;DHT22;6408;59.388;17.798;2023-07-24T04:09:33;15.00;99.90
12688;DHT22;6408;59.388;17.798;2023-07-24T04:12:00;15.00;99.90
12688;DHT22;6408;59.388;17.798;2023-07-24T04:14:28;15.10;99.90
12688;DHT22;6408;59.388;17.798;2023-07-24T04:16:55;15.10;99.90
12688;DHT22;6408;59.388;17.798;2023-07-24T04:19:24;15.10;99.90
12688;DHT22;6408;59.388;17.798;2023-07-24T04:21:52;15.10;99.90
12688;DHT22;6408;59.388;17.798;2023-07-24T04:24:19;15.20;99.90
12688;DHT22;6408;59.388;17.798;2023-07-24T04:26:46;15.10;99.90
12688;DHT22;6408;59.388;17.798;2023-07-24T04:29:14;15.30;99.90
12688;DHT22;6408;59.388;17.798;2023-07-24T04:31:41;15.30;99.90
12688;DHT22;6408;59.388;17.798;2023-07-24T04:34:09;15.40;99.90
12688;DHT22;6408;59.388;17.798;2023-07-24T04:36:37;15.40;99.90
12688;DHT22;6408;59.388;17.798;2023-07-24T04:39:05;15.40;99.90
12688;DHT22;6408;59.388;17.798;2023-07-24T04:41:32;15.40;99.90
12688;DHT22;6408;59.388;17.798;2023-07-24T04:44:00;15.40;99.90
12688;DHT22;6408;59.388;17.798;2023-07-24T04:46:27;15.40;99.90
12688;DHT22;6408;59.388;17.798;2023-07-24T04:48:54;15.40;99.90
12688;DHT22;6408;59.388;17.798;2023-07-24T04:51:22;15.50;99.90
12688;DHT22;6408;59.388;17.798;2023-07-24T04:53:51;15.60;99.90
12688;DHT22;6408;59.388;17.798;2023-07-24T04:56:18;15.60;99.90
12688;DHT22;6408;59.388;17.798;2023-07-24T04:58:46;15.60;99.90
12688;DHT22;6408;59.388;17.798;2023-07-24T05:01:13;15.60;99.90
12688;DHT22;6408;59.388;17.798;2023-07-24T05:03:41;15.60;99.90
12688;DHT22;6408;59.388;17.798;2023-07-24T05:06:08;15.70;99.90
12688;DHT22;6408;59.388;17.798;2023-07-24T05:08:35;15.70;99.90
12688;DHT22;6408;59.388;17.798;2023-07-24T05:11:04;15.70;99.90
12688;DHT22;6408;59.388;17.798;2023-07-24T05:13:32;15.80;99.90
12688;DHT22;6408;59.388;17.798;2023-07-24T05:15:59;15.90;99.90
12688;DHT22;6408;59.388;17.798;2023-07-24T05:18:27;15.90;99.90
12688;DHT22;6408;59.388;17.798;2023-07-24T05:20:55;16.00;99.90
12688;DHT22;6408;59.388;17.798;2023-07-24T05:23:22;16.00;99.90
12688;DHT22;6408;59.388;17.798;2023-07-24T05:25:56;16.10;99.90
12688;DHT22;6408;59.388;17.798;2023-07-24T05:28:26;16.10;99.90
12688;DHT22;6408;59.388;17.798;2023-07-24T05:30:54;16.10;99.90
12688;DHT22;6408;59.388;17.798;2023-07-24T05:33:21;16.00;99.90
12688;DHT22;6408;59.388;17.798;2023-07-24T05:35:49;16.10;99.90
12688;DHT22;6408;59.388;17.798;2023-07-24T05:38:16;16.10;99.90
12688;DHT22;6408;59.388;17.798;2023-07-24T05:40:44;16.20;99.90
12688;DHT22;6408;59.388;17.798;2023-07-24T05:43:11;16.30;99.90
12688;DHT22;6408;59.388;17.798;2023-07-24T05:45:40;16.40;99.90
12688;DHT22;6408;59.388;17.798;2023-07-24T05:48:08;16.40;99.90
12688;DHT22;6408;59.388;17.798;2023-07-24T05:50:35;16.40;99.90
12688;DHT22;6408;59.388;17.798;2023-07-24T05:53:02;16.50;99.90
12688;DHT22;6408;59.388;17.798;2023-07-24T05:55:30;16.40;99.90
12688;DHT22;6408;59.388;17.798;2023-07-24T05:57:57;16.40;99.90
12688;DHT22;6408;59.388;17.798;2023-07-24T06:00:25;16.70;99.90
12688;DHT22;6408;59.388;17.798;2023-07-24T06:02:54;16.80;99.90
12688;DHT22;6408;59.388;17.798;2023-07-24T06:05:22;17.00;99.90
12688;DHT22;6408;59.388;17.798;2023-07-24T06:07:49;17.10;99.90
12688;DHT22;6408;59.388;17.798;2023-07-24T06:10:16;17.10;99.90
12688;DHT22;6408;59.388;17.798;2023-07-24T06:12:44;17.30;99.90
12688;DHT22;6408;59.388;17.798;2023-07-24T06:15:11;17.40;99.90
12688;DHT22;6408;59.388;17.798;2023-07-24T06:17:39;18.00;99.90
12688;DHT22;6408;59.388;17.798;2023-07-24T06:20:10;18.60;99.90
12688;DHT22;6408;59.388;17.798;2023-07-24T06:22:37;19.30;99.90
12688;DHT22;6408;59.388;17.798;2023-07-24T06:25:05;19.90;99.90
12688;DHT22;6408;59.388;17.798;2023-07-24T06:27:33;20.10;99.90
12688;DHT22;6408;59.388;17.798;2023-07-24T06:30:00;20.30;99.90
12688;DHT22;6408;59.388;17.798;2023-07-24T06:32:28;20.40;99.90
12688;DHT22;6408;59.388;17.798;2023-07-24T06:34:55;20.40;99.90
12688;DHT22;6408;59.388;17.798;2023-07-24T06:37:24;20.40;99.90
12688;DHT22;6408;59.388;17.798;2023-07-24T06:39:51;20.40;99.90
12688;DHT22;6408;59.388;17.798;2023-07-24T06:42:19;20.40;99.90
12688;DHT22;6408;59.388;17.798;2023-07-24T06:44:46;20.60;99.90
12688;DHT22;6408;59.388;17.798;2023-07-24T06:47:13;20.70;99.90
12688;DHT22;6408;59.388;17.798;2023-07-24T06:49:41;20.60;99.90
12688;DHT22;6408;59.388;17.798;2023-07-24T06:52:08;20.70;99.90
12688;DHT22;6408;59.388;17.798;2023-07-24T06:54:37;20.90;99.90
12688;DHT22;6408;59.388;17.798;2023-07-24T06:57:05;21.00;99.90
12688;DHT22;6408;59.388;17.798;2023-07-24T06:59:32;20.90;99.90
12688;DHT22;6408;59.388;17.798;2023-07-24T07:02:00;21.00;99.90
12688;DHT22;6408;59.388;17.798;2023-07-24T07:04:27;21.00;99.90
12688;DHT22;6408;59.388;17.798;2023-07-24T07:06:55;21.10;99.90
12688;DHT22;6408;59.388;17.798;2023-07-24T07:09:22;21.10;99.90
12688;DHT22;6408;59.388;17.798;2023-07-24T07:11:51;21.10;99.90
12688;DHT22;6408;59.388;17.798;2023-07-24T07:14:18;21.20;99.90
12688;DHT22;6408;59.388;17.798;2023-07-24T07:16:46;21.50;99.90
12688;DHT22;6408;59.388;17.798;2023-07-24T07:19:14;21.60;99.90
12688;DHT22;6408;59.388;17.798;2023-07-24T07:21:41;21.60;99.90
12688;DHT22;6408;59.388;17.798;2023-07-24T07:24:08;21.60;99.90
12688;DHT22;6408;59.388;17.798;2023-07-24T07:26:36;21.80;99.90
12688;DHT22;6408;59.388;17.798;2023-07-24T07:29:04;22.00;99.90
12688;DHT22;6408;59.388;17.798;2023-07-24T07:31:32;22.10;99.90
12688;DHT22;6408;59.388;17.798;2023-07-24T07:33:59;22.40;99.90
12688;DHT22;6408;59.388;17.798;2023-07-24T07:36:27;22.50;99.90
12688;DHT22;6408;59.388;17.798;2023-07-24T07:38:54;22.50;99.90
12688;DHT22;6408;59.388;17.798;2023-07-24T07:41:22;22.60;99.90
12688;DHT22;6408;59.388;17.798;2023-07-24T07:43:49;22.80;99.90
12688;DHT22;6408;59.388;17.798;2023-07-24T07:46:18;23.00;99.90
12688;DHT22;6408;59.388;17.798;2023-07-24T07:48:46;23.10;99.90
12688;DHT22;6408;59.388;17.798;2023-07-24T07:51:14;23.30;99.90
12688;DHT22;6408;59.388;17.798;2023-07-24T07:53:42;23.60;99.90
12688;DHT22;6408;59.388;17.798;2023-07-24T07:56:09;23.90;99.90
12688;DHT22;6408;59.388;17.798;2023-07-24T07:58:37;24.20;99.90
12688;DHT22;6408;59.388;17.798;2023-07-24T08:01:04;24.40;99.90
12688;DHT22;6408;59.388;17.798;2023-07-24T08:03:33;24.40;99.90
12688;DHT22;6408;59.388;17.798;2023-07-24T08:06:01;24.60;99.90
12688;DHT22;6408;59.388;17.798;2023-07-24T08:08:28;24.70;99.90
12688;DHT22;6408;59.388;17.798;2023-07-24T08:10:56;25.00;99.90
12688;DHT22;6408;59.388;17.798;2023-07-24T08:13:23;24.70;99.90
12688;DHT22;6408;59.388;17.798;2023-07-24T08:15:52;24.50;99.90
12688;DHT22;6408;59.388;17.798;2023-07-24T08:18:20;24.30;99.90
12688;DHT22;6408;59.388;17.798;2023-07-24T08:20:48;24.40;99.90
12688;DHT22;6408;59.388;17.798;2023-07-24T08:23:16;24.60;99.90
12688;DHT22;6408;59.388;17.798;2023-07-24T08:25:51;24.70;99.90
12688;DHT22;6408;59.388;17.798;2023-07-24T08:28:19;24.40;99.90
12688;DHT22;6408;59.388;17.798;2023-07-24T08:30:50;24.20;99.90
12688;DHT22;6408;59.388;17.798;2023-07-24T08:33:22;24.30;99.90
12688;DHT22;6408;59.388;17.798;2023-07-24T08:35:59;24.20;99.90
12688;DHT22;6408;59.388;17.798;2023-07-24T08:38:27;24.40;99.90
12688;DHT22;6408;59.388;17.798;2023-07-24T08:41:04;24.40;99.90
12688;DHT22;6408;59.388;17.798;2023-07-24T08:43:33;24.30;99.90
12688;DHT22;6408;59.388;17.798;2023-07-24T08:46:01;24.60;99.90
12688;DHT22;6408;59.388;17.798;2023-07-24T08:48:30;24.60;99.90
12688;DHT22;6408;59.388;17.798;2023-07-24T08:51:03;24.70;99.90
12688;DHT22;6408;59.388;17.798;2023-07-24T08:53:32;24.80;99.90
12688;DHT22;6408;59.388;17.798;2023-07-24T08:56:02;24.80;99.90
12688;DHT22;6408;59.388;17.798;2023-07-24T08:58:30;25.10;99.90
12688;DHT22;6408;59.388;17.798;2023-07-24T09:00:57;25.20;99.90
12688;DHT22;6408;59.388;17.798;2023-07-24T09:03:25;25.20;99.90
12688;DHT22;6408;59.388;17.798;2023-07-24T09:05:53;25.30;99.90
12688;DHT22;6408;59.388;17.798;2023-07-24T09:08:30;25.40;99.90
12688;DHT22;6408;59.388;17.798;2023-07-24T09:10:58;25.50;99.90
12688;DHT22;6408;59.388;17.798;2023-07-24T09:13:25;25.20;99.90
12688;DHT22;6408;59.388;17.798;2023-07-24T09:15:53;25.10;99.90
12688;DHT22;6408;59.388;17.798;2023-07-24T09:18:21;25.20;99.90
12688;DHT22;6408;59.388;17.798;2023-07-24T09:20:49;25.40;99.90
12688;DHT22;6408;59.388;17.798;2023-07-24T09:23:25;25.50;99.90
12688;DHT22;6408;59.388;17.798;2023-07-24T09:25:55;25.70;99.90
12688;DHT22;6408;59.388;17.798;2023-07-24T09:28:23;25.90;99.90
12688;DHT22;6408;59.388;17.798;2023-07-24T09:30:54;25.70;99.90
12688;DHT22;6408;59.388;17.798;2023-07-24T09:33:22;25.80;99.90
12688;DHT22;6408;59.388;17.798;2023-07-24T09:35:59;26.00;99.90
12688;DHT22;6408;59.388;17.798;2023-07-24T09:38:26;26.20;99.90
12688;DHT22;6408;59.388;17.798;2023-07-24T09:40:56;26.20;99.90
12688;DHT22;6408;59.388;17.798;2023-07-24T09:43:25;26.30;99.90
12688;DHT22;6408;59.388;17.798;2023-07-24T09:45:54;26.70;99.90
12688;DHT22;6408;59.388;17.798;2023-07-24T09:48:23;26.80;99.90
12688;DHT22;6408;59.388;17.798;2023-07-24T09:50:53;26.80;99.90
12688;DHT22;6408;59.388;17.798;2023-07-24T09:53:27;26.80;99.90
12688;DHT22;6408;59.388;17.798;2023-07-24T09:56:00;26.70;99.90
12688;DHT22;6408;59.388;17.798;2023-07-24T09:58:28;26.70;99.90
12688;DHT22;6408;59.388;17.798;2023-07-24T10:00:56;26.70;99.90
12688;DHT22;6408;59.388;17.798;2023-07-24T10:03:25;26.70;99.90
12688;DHT22;6408;59.388;17.798;2023-07-24T10:05:53;26.70;99.90
12688;DHT22;6408;59.388;17.798;2023-07-24T10:08:21;26.30;99.90
12688;DHT22;6408;59.388;17.798;2023-07-24T10:10:49;26.50;99.90
12688;DHT22;6408;59.388;17.798;2023-07-24T10:13:21;26.50;99.90
12688;DHT22;6408;59.388;17.798;2023-07-24T10:15:49;26.40;99.90
12688;DHT22;6408;59.388;17.798;2023-07-24T10:18:17;26.60;99.90
12688;DHT22;6408;59.388;17.798;2023-07-24T10:20:45;26.50;99.90
12688;DHT22;6408;59.388;17.798;2023-07-24T10:23:17;26.30;99.90
12688;DHT22;6408;59.388;17.798;2023-07-24T10:25:46;25.90;99.90
12688;DHT22;6408;59.388;17.798;2023-07-24T10:28:18;25.10;99.90
12688;DHT22;6408;59.388;17.798;2023-07-24T10:30:55;25.20;99.90
12688;DHT22;6408;59.388;17.798;2023-07-24T10:33:23;25.10;99.90
12688;DHT22;6408;59.388;17.798;2023-07-24T10:35:53;25.40;99.90
12688;DHT22;6408;59.388;17.798;2023-07-24T10:38:33;25.30;99.90
12688;DHT22;6408;59.388;17.798;2023-07-24T10:41:02;25.50;99.90
12688;DHT22;6408;59.388;17.798;2023-07-24T10:43:40;25.70;99.90
12688;DHT22;6408;59.388;17.798;2023-07-24T10:46:09;26.10;99.90
12688;DHT22;6408;59.388;17.798;2023-07-24T10:48:37;26.30;99.90
12688;DHT22;6408;59.388;17.798;2023-07-24T10:51:09;26.10;99.90
12688;DHT22;6408;59.388;17.798;2023-07-24T10:53:37;26.20;99.90
12688;DHT22;6408;59.388;17.798;2023-07-24T10:56:06;26.00;99.90
12688;DHT22;6408;59.388;17.798;2023-07-24T10:58:34;26.10;99.90
12688;DHT22;6408;59.388;17.798;2023-07-24T11:01:04;26.10;99.90
12688;DHT22;6408;59.388;17.798;2023-07-24T11:03:35;26.20;99.90
12688;DHT22;6408;59.388;17.798;2023-07-24T11:06:03;26.20;99.90
12688;DHT22;6408;59.388;17.798;2023-07-24T11:08:31;25.60;99.90
12688;DHT22;6408;59.388;17.798;2023-07-24T11:11:01;25.30;99.90
12688;DHT22;6408;59.388;17.798;2023-07-24T11:13:30;25.30;99.90
12688;DHT22;6408;59.388;17.798;2023-07-24T11:16:03;25.60;99.90
12688;DHT22;6408;59.388;17.798;2023-07-24T11:18:43;25.90;99.90
12688;DHT22;6408;59.388;17.798;2023-07-24T11:21:12;25.90;99.90
12688;DHT22;6408;59.388;17.798;2023-07-24T11:23:45;25.90;99.90
12688;DHT22;6408;59.388;17.798;2023-07-24T11:26:12;26.10;99.90
12688;DHT22;6408;59.388;17.798;2023-07-24T11:28:41;26.00;99.90
12688;DHT22;6408;59.388;17.798;2023-07-24T11:31:08;25.80;99.90
12688;DHT22;6408;59.388;17.798;2023-07-24T11:33:38;25.50;99.90
12688;DHT22;6408;59.388;17.798;2023-07-24T11:36:06;25.80;99.90
12688;DHT22;6408;59.388;17.798;2023-07-24T11:38:34;26.20;99.90
12688;DHT22;6408;59.388;17.798;2023-07-24T11:41:03;26.20;99.90
12688;DHT22;6408;59.388;17.798;2023-07-24T11:43:31;25.90;99.90
12688;DHT22;6408;59.388;17.798;2023-07-24T11:45:58;26.00;99.90
12688;DHT22;6408;59.388;17.798;2023-07-24T11:48:26;25.90;99.90
12688;DHT22;6408;59.388;17.798;2023-07-24T11:50:55;25.40;99.90
12688;DHT22;6408;59.388;17.798;2023-07-24T11:53:24;25.30;99.90
12688;DHT22;6408;59.388;17.798;2023-07-24T11:55:53;25.50;99.90
12688;DHT22;6408;59.388;17.798;2023-07-24T11:58:21;25.40;99.90
12688;DHT22;6408;59.388;17.798;2023-07-24T12:00:49;25.20;99.90
12688;DHT22;6408;59.388;17.798;2023-07-24T12:03:19;25.30;99.90
12688;DHT22;6408;59.388;17.798;2023-07-24T12:05:48;25.40;99.90
12688;DHT22;6408;59.388;17.798;2023-07-24T12:08:19;25.40;99.90
12688;DHT22;6408;59.388;17.798;2023-07-24T12:10:49;25.40;99.90
12688;DHT22;6408;59.388;17.798;2023-07-24T12:13:16;25.40;99.90
12688;DHT22;6408;59.388;17.798;2023-07-24T12:15:44;25.30;99.90
12688;DHT22;6408;59.388;17.798;2023-07-24T12:18:11;25.50;99.90
12688;DHT22;6408;59.388;17.798;2023-07-24T12:20:38;25.60;99.90
12688;DHT22;6408;59.388;17.798;2023-07-24T12:23:05;25.90;99.90
12688;DHT22;6408;59.388;17.798;2023-07-24T12:25:35;25.70;99.90
12688;DHT22;6408;59.388;17.798;2023-07-24T12:28:02;25.60;99.90
12688;DHT22;6408;59.388;17.798;2023-07-24T12:30:29;25.60;99.90
12688;DHT22;6408;59.388;17.798;2023-07-24T12:32:57;25.50;99.90
12688;DHT22;6408;59.388;17.798;2023-07-24T12:35:25;25.20;99.90
12688;DHT22;6408;59.388;17.798;2023-07-24T12:37:53;25.30;99.90
12688;DHT22;6408;59.388;17.798;2023-07-24T12:40:23;25.10;99.90
12688;DHT22;6408;59.388;17.798;2023-07-24T12:42:52;25.10;99.90
12688;DHT22;6408;59.388;17.798;2023-07-24T12:45:19;25.20;99.90
12688;DHT22;6408;59.388;17.798;2023-07-24T12:47:47;25.40;99.90
12688;DHT22;6408;59.388;17.798;2023-07-24T12:50:14;25.60;99.90
12688;DHT22;6408;59.388;17.798;2023-07-24T12:52:41;25.50;99.90
12688;DHT22;6408;59.388;17.798;2023-07-24T12:55:09;25.60;99.90
12688;DHT22;6408;59.388;17.798;2023-07-24T12:57:36;25.60;99.90
12688;DHT22;6408;59.388;17.798;2023-07-24T13:00:07;25.60;99.90
12688;DHT22;6408;59.388;17.798;2023-07-24T13:02:35;25.60;99.90
12688;DHT22;6408;59.388;17.798;2023-07-24T13:05:02;25.60;99.90
12688;DHT22;6408;59.388;17.798;2023-07-24T13:07:30;25.70;99.90
12688;DHT22;6408;59.388;17.798;2023-07-24T13:09:58;25.50;99.90
12688;DHT22;6408;59.388;17.798;2023-07-24T13:12:25;25.10;99.90
12688;DHT22;6408;59.388;17.798;2023-07-24T13:14:52;24.80;99.90
12688;DHT22;6408;59.388;17.798;2023-07-24T13:17:21;24.80;99.90
12688;DHT22;6408;59.388;17.798;2023-07-24T13:19:49;25.10;99.90
12688;DHT22;6408;59.388;17.798;2023-07-24T13:22:16;25.00;99.90
12688;DHT22;6408;59.388;17.798;2023-07-24T13:24:44;24.90;99.90
12688;DHT22;6408;59.388;17.798;2023-07-24T13:27:11;25.00;99.90
12688;DHT22;6408;59.388;17.798;2023-07-24T13:29:38;25.00;99.90
12688;DHT22;6408;59.388;17.798;2023-07-24T13:32:07;25.00;99.90
12688;DHT22;6408;59.388;17.798;2023-07-24T13:34:37;25.10;99.90
12688;DHT22;6408;59.388;17.798;2023-07-24T13:37:05;25.30;99.90
12688;DHT22;6408;59.388;17.798;2023-07-24T13:39:32;25.20;99.90
12688;DHT22;6408;59.388;17.798;2023-07-24T13:42:01;25.30;99.90
12688;DHT22;6408;59.388;17.798;2023-07-24T13:44:28;25.20;99.90
12688;DHT22;6408;59.388;17.798;2023-07-24T13:46:56;25.10;99.90
12688;DHT22;6408;59.388;17.798;2023-07-24T13:49:23;25.10;99.90
12688;DHT22;6408;59.388;17.798;2023-07-24T13:51:52;25.00;99.90
12688;DHT22;6408;59.388;17.798;2023-07-24T13:54:19;25.20;99.90
12688;DHT22;6408;59.388;17.798;2023-07-24T13:56:47;24.70;99.90
12688;DHT22;6408;59.388;17.798;2023-07-24T13:59:14;24.60;99.90
12688;DHT22;6408;59.388;17.798;2023-07-24T14:01:42;24.60;99.90
12688;DHT22;6408;59.388;17.798;2023-07-24T14:04:10;24.60;99.90
12688;DHT22;6408;59.388;17.798;2023-07-24T14:06:37;24.70;99.90
12688;DHT22;6408;59.388;17.798;2023-07-24T14:09:07;24.80;99.90
12688;DHT22;6408;59.388;17.798;2023-07-24T14:11:34;25.10;99.90
12688;DHT22;6408;59.388;17.798;2023-07-24T14:14:01;25.00;99.90
12688;DHT22;6408;59.388;17.798;2023-07-24T14:16:29;25.00;99.90
12688;DHT22;6408;59.388;17.798;2023-07-24T14:18:56;24.60;99.90
12688;DHT22;6408;59.388;17.798;2023-07-24T14:21:24;24.50;99.90
12688;DHT22;6408;59.388;17.798;2023-07-24T14:23:51;24.40;99.90
12688;DHT22;6408;59.388;17.798;2023-07-24T14:26:20;24.30;99.90
12688;DHT22;6408;59.388;17.798;2023-07-24T14:28:48;24.30;99.90
12688;DHT22;6408;59.388;17.798;2023-07-24T14:31:16;24.50;99.90
12688;DHT22;6408;59.388;17.798;2023-07-24T14:33:43;24.30;99.90
12688;DHT22;6408;59.388;17.798;2023-07-24T14:36:11;24.40;99.90
12688;DHT22;6408;59.388;17.798;2023-07-24T14:38:38;24.40;99.90
12688;DHT22;6408;59.388;17.798;2023-07-24T14:41:06;24.40;99.90
12688;DHT22;6408;59.388;17.798;2023-07-24T14:43:35;24.40;99.90
12688;DHT22;6408;59.388;17.798;2023-07-24T14:46:02;24.30;99.90
12688;DHT22;6408;59.388;17.798;2023-07-24T14:48:29;24.20;99.90
12688;DHT22;6408;59.388;17.798;2023-07-24T14:50:57;24.10;99.90
12688;DHT22;6408;59.388;17.798;2023-07-24T14:53:24;24.10;99.90
12688;DHT22;6408;59.388;17.798;2023-07-24T14:55:51;24.10;99.90
12688;DHT22;6408;59.388;17.798;2023-07-24T14:58:19;24.20;99.90
12688;DHT22;6408;59.388;17.798;2023-07-24T15:00:48;23.90;99.90
12688;DHT22;6408;59.388;17.798;2023-07-24T15:03:16;23.80;99.90
12688;DHT22;6408;59.388;17.798;2023-07-24T15:05:43;23.70;99.90
12688;DHT22;6408;59.388;17.798;2023-07-24T15:08:10;23.80;99.90
12688;DHT22;6408;59.388;17.798;2023-07-24T15:10:38;23.50;99.90
12688;DHT22;6408;59.388;17.798;2023-07-24T15:13:05;23.70;99.90
12688;DHT22;6408;59.388;17.798;2023-07-24T15:15:32;23.50;99.90
12688;DHT22;6408;59.388;17.798;2023-07-24T15:18:01;23.20;99.90
12688;DHT22;6408;59.388;17.798;2023-07-24T15:20:29;23.30;99.90
12688;DHT22;6408;59.388;17.798;2023-07-24T15:22:56;23.40;99.90
12688;DHT22;6408;59.388;17.798;2023-07-24T15:25:24;23.40;99.90
12688;DHT22;6408;59.388;17.798;2023-07-24T15:27:51;23.50;99.90
12688;DHT22;6408;59.388;17.798;2023-07-24T15:30:19;23.50;99.90
12688;DHT22;6408;59.388;17.798;2023-07-24T15:32:46;23.50;99.90
12688;DHT22;6408;59.388;17.798;2023-07-24T15:35:15;23.50;99.90
12688;DHT22;6408;59.388;17.798;2023-07-24T15:37:43;23.40;99.90